Time;durP1;ratioP1;P1;durP2;ratioP2;P2;SDS_P1;SDS_P2;PMS_P1;PMS_P2;Temp;Humidity;BMP_temperature;BMP_pressure;BME280_temperature;BME280_humidity;BME280_pressure;Samples;Min_cycle;Max_cycle;Signal;HPM_P1;HPM_P2
2021/07/14 00:00:03;;;;;;;15.63;14.33;;;22.70;99.90;;;;;;5072521;28;20695;-64
2021/07/14 00:02:38;;;;;;;14.67;13.57;;;22.70;99.90;;;;;;5058487;28;20588;-64
2021/07/14 00:05:13;;;;;;;15.10;14.00;;;22.70;99.90;;;;;;5071823;28;20639;-64
2021/07/14 00:07:49;;;;;;;14.50;13.40;;;22.70;99.90;;;;;;5063308;28;20604;-64
2021/07/14 00:10:25;;;;;;;14.87;13.67;;;22.70;99.90;;;;;;5060184;28;20584;-63
2021/07/14 00:23:22;;;;;;;15.60;14.30;;;22.60;99.90;;;;;;5071052;28;21084;-63
2021/07/14 00:25:53;;;;;;;14.67;13.57;;;22.70;99.90;;;;;;5062206;28;20630;-64
2021/07/14 00:28:21;;;;;;;15.43;14.20;;;22.60;99.90;;;;;;5057086;28;21316;-64
2021/07/14 00:30:51;;;;;;;14.03;13.03;;;22.60;99.90;;;;;;5062913;28;20605;-64
2021/07/14 00:33:20;;;;;;;14.60;13.60;;;22.60;99.90;;;;;;5066824;28;20588;-64
2021/07/14 00:35:51;;;;;;;15.90;14.70;;;22.60;99.90;;;;;;5051564;28;21173;-63
2021/07/14 00:38:24;;;;;;;17.03;15.60;;;22.60;99.90;;;;;;5057304;28;20715;-64
2021/07/14 00:40:51;;;;;;;15.27;14.07;;;22.60;99.90;;;;;;5067343;28;21139;-64
2021/07/14 00:43:17;;;;;;;14.83;13.70;;;22.60;99.90;;;;;;5049242;28;20782;-64
2021/07/14 00:45:52;;;;;;;16.47;14.97;;;22.60;99.90;;;;;;5071498;28;20561;-63
2021/07/14 00:48:25;;;;;;;14.50;13.40;;;22.60;99.90;;;;;;5078668;28;20191;-64
2021/07/14 00:50:51;;;;;;;15.47;14.30;;;22.60;99.90;;;;;;5049047;28;21378;-64
2021/07/14 00:53:17;;;;;;;14.87;13.77;;;22.60;99.90;;;;;;5051939;28;20593;-64
2021/07/14 00:55:45;;;;;;;15.73;14.23;;;22.60;99.90;;;;;;5068901;28;20215;-64
2021/07/14 00:58:11;;;;;;;15.27;14.10;;;22.50;99.90;;;;;;5070606;28;20269;-64
2021/07/14 01:00:37;;;;;;;15.70;14.50;;;22.50;99.90;;;;;;5049424;28;20626;-63
2021/07/14 01:03:09;;;;;;;15.50;14.20;;;22.50;99.90;;;;;;5051266;28;20255;-64
2021/07/14 01:05:45;;;;;;;15.40;14.20;;;22.50;99.90;;;;;;5055851;28;20184;-63
2021/07/14 01:08:29;;;;;;;16.20;14.80;;;22.50;99.90;;;;;;5037425;28;21215;-66
2021/07/14 01:11:08;;;;;;;14.87;13.77;;;22.40;99.90;;;;;;5050769;28;21181;-64
2021/07/14 01:13:43;;;;;;;14.17;13.13;;;22.50;99.90;;;;;;5052859;28;21116;-64
2021/07/14 01:16:24;;;;;;;14.57;13.33;;;22.40;99.90;;;;;;5053078;28;20586;-63
2021/07/14 01:18:56;;;;;;;14.33;13.33;;;22.40;99.90;;;;;;5063654;28;20682;-64
2021/07/14 01:21:43;;;;;;;13.60;12.60;;;22.40;99.90;;;;;;5070630;28;20887;-64
2021/07/14 01:24:16;;;;;;;15.07;13.97;;;22.40;99.90;;;;;;5069905;28;20657;-63
2021/07/14 01:26:53;;;;;;;15.00;13.80;;;22.40;99.90;;;;;;5050259;28;20646;-64
2021/07/14 01:29:25;;;;;;;15.43;14.17;;;22.40;99.90;;;;;;5069305;28;20664;-63
2021/07/14 01:32:05;;;;;;;;;;;;;;;;;;;;;
2021/07/14 01:34:33;;;;;;;14.97;13.67;;;22.30;99.90;;;;;;5069632;28;20759;-64
2021/07/14 01:37:07;;;;;;;14.37;13.37;;;22.30;99.90;;;;;;5063489;28;20948;-64
2021/07/14 01:39:40;;;;;;;14.40;13.30;;;22.40;99.90;;;;;;5054618;28;20666;-63
2021/07/14 01:42:14;;;;;;;14.70;13.60;;;22.40;99.90;;;;;;5070038;28;20588;-64
2021/07/14 01:44:42;;;;;;;14.43;13.33;;;22.40;99.90;;;;;;5048579;28;20683;-63
2021/07/14 01:47:10;;;;;;;14.43;13.23;;;22.30;99.90;;;;;;5049405;28;20670;-64
2021/07/14 01:49:41;;;;;;;14.13;13.03;;;22.30;99.90;;;;;;5069792;28;20610;-64
2021/07/14 01:52:19;;;;;;;15.30;14.10;;;22.30;99.90;;;;;;5049979;28;20679;-64
2021/07/14 01:54:48;;;;;;;14.90;13.60;;;22.30;99.90;;;;;;5051722;28;20601;-64
2021/07/14 01:57:18;;;;;;;14.80;13.43;;;22.30;99.90;;;;;;5051940;28;21152;-64
2021/07/14 01:59:49;;;;;;;14.10;12.90;;;22.30;99.90;;;;;;5051129;28;20658;-64
2021/07/14 02:02:18;;;;;;;14.90;13.63;;;22.30;99.90;;;;;;5064927;28;20620;-64
2021/07/14 02:04:46;;;;;;;14.30;13.20;;;22.30;99.90;;;;;;5070563;28;20582;-64
2021/07/14 02:07:21;;;;;;;14.00;12.90;;;22.30;99.90;;;;;;5051511;28;20606;-64
2021/07/14 02:09:50;;;;;;;16.67;15.27;;;22.20;99.90;;;;;;5057138;28;20617;-64
2021/07/14 02:12:26;;;;;;;14.63;13.50;;;22.20;99.90;;;;;;5069773;28;20588;-64
2021/07/14 02:15:03;;;;;;;15.50;14.23;;;22.30;99.90;;;;;;5069317;28;20578;-63
2021/07/14 02:17:33;;;;;;;14.13;13.03;;;22.20;99.90;;;;;;5062634;28;20704;-64
2021/07/14 02:20:10;;;;;;;14.90;13.70;;;22.20;99.90;;;;;;5069369;28;20657;-63
2021/07/14 02:22:36;;;;;;;15.10;13.87;;;22.20;99.90;;;;;;5069687;28;20577;-64
2021/07/14 02:25:03;;;;;;;14.67;13.57;;;22.20;99.90;;;;;;5068167;28;20807;-64
2021/07/14 02:27:31;;;;;;;16.10;14.50;;;22.20;99.90;;;;;;5066999;28;20269;-63
2021/07/14 02:29:58;;;;;;;16.00;14.80;;;22.20;99.90;;;;;;5051810;28;20644;-65
2021/07/14 02:32:30;;;;;;;15.93;14.63;;;22.20;99.90;;;;;;5052365;28;20583;-64
2021/07/14 02:34:58;;;;;;;14.40;13.30;;;22.20;99.90;;;;;;5066104;28;20192;-64
2021/07/14 02:37:33;;;;;;;14.33;13.13;;;22.20;99.90;;;;;;5060717;28;21122;-64
2021/07/14 02:40:06;;;;;;;15.20;13.87;;;22.20;99.90;;;;;;5031068;28;21042;-64
2021/07/14 02:42:36;;;;;;;15.30;14.10;;;22.20;99.90;;;;;;5049244;28;20601;-64
2021/07/14 02:45:07;;;;;;;14.77;13.53;;;22.20;99.90;;;;;;5042695;28;20668;-64
2021/07/14 02:47:41;;;;;;;14.43;13.23;;;22.20;99.90;;;;;;5063405;28;20609;-64
2021/07/14 02:50:15;;;;;;;15.17;13.87;;;22.10;99.90;;;;;;5067889;28;20601;-63
2021/07/14 02:52:46;;;;;;;15.37;14.13;;;22.10;99.90;;;;;;5068633;28;20954;-64
2021/07/14 02:55:17;;;;;;;14.80;13.57;;;22.20;99.90;;;;;;5051407;28;21246;-64
2021/07/14 02:57:45;;;;;;;15.17;13.80;;;22.20;99.90;;;;;;5051717;28;20594;-64
2021/07/14 03:00:12;;;;;;;14.07;12.97;;;22.10;99.90;;;;;;5059944;28;20992;-64
2021/07/14 03:02:40;;;;;;;15.33;13.90;;;22.20;99.90;;;;;;5040900;28;20598;-66
2021/07/14 03:05:10;;;;;;;15.03;13.83;;;22.20;99.90;;;;;;5047612;28;20936;-64
2021/07/14 03:07:45;;;;;;;14.00;12.90;;;22.20;99.90;;;;;;5034247;28;20747;-64
2021/07/14 03:10:11;;;;;;;14.50;13.30;;;22.20;99.90;;;;;;5067304;28;20747;-65
2021/07/14 03:12:41;;;;;;;14.70;13.50;;;22.10;99.90;;;;;;5069499;28;20586;-64
2021/07/14 03:15:10;;;;;;;14.67;13.30;;;22.20;99.90;;;;;;5047425;28;21130;-64
2021/07/14 03:17:40;;;;;;;15.00;13.80;;;22.20;99.90;;;;;;5049050;28;20567;-64
2021/07/14 03:20:15;;;;;;;15.70;14.43;;;22.10;99.90;;;;;;5032372;28;20626;-64
2021/07/14 03:22:57;;;;;;;15.50;14.30;;;22.10;99.90;;;;;;5056544;28;20551;-65
2021/07/14 03:25:23;;;;;;;16.70;15.30;;;22.10;99.90;;;;;;5051243;28;20596;-64
2021/07/14 03:27:51;;;;;;;16.20;14.90;;;22.00;99.90;;;;;;5058626;28;20617;-64
2021/07/14 03:30:19;;;;;;;15.83;14.57;;;22.00;99.90;;;;;;5050552;28;20187;-66
2021/07/14 03:32:49;;;;;;;15.97;14.70;;;22.00;99.90;;;;;;5060531;28;20579;-64
2021/07/14 03:35:20;;;;;;;16.20;14.80;;;22.00;99.90;;;;;;5048740;28;20697;-64
2021/07/14 03:37:53;;;;;;;16.13;14.83;;;22.00;99.90;;;;;;5048328;28;21196;-64
2021/07/14 03:40:19;;;;;;;16.90;15.40;;;22.00;99.90;;;;;;5054717;28;20580;-64
2021/07/14 03:42:48;;;;;;;16.73;15.33;;;22.00;99.90;;;;;;5068414;28;20606;-64
2021/07/14 03:45:17;;;;;;;15.50;14.20;;;22.00;99.90;;;;;;5071431;28;20590;-65
2021/07/14 03:47:48;;;;;;;16.80;15.40;;;22.00;99.90;;;;;;5070231;28;20600;-65
2021/07/14 03:50:14;;;;;;;17.30;15.80;;;22.00;99.90;;;;;;5052672;28;20658;-64
2021/07/14 03:52:45;;;;;;;16.57;15.27;;;21.90;99.90;;;;;;5061744;28;20717;-65
2021/07/14 03:55:13;;;;;;;16.73;15.40;;;21.90;99.90;;;;;;5059964;28;20586;-65
2021/07/14 03:57:47;;;;;;;15.33;14.10;;;22.00;99.90;;;;;;5069226;28;20727;-65
2021/07/14 04:00:16;;;;;;;15.80;14.40;;;22.00;99.90;;;;;;5045667;23;20793;-70
2021/07/14 04:02:46;;;;;;;16.27;14.83;;;21.90;99.90;;;;;;5064549;28;21059;-70
2021/07/14 04:05:16;;;;;;;17.00;15.50;;;21.90;99.90;;;;;;5066713;28;20690;-70
2021/07/14 04:07:45;;;;;;;16.87;15.40;;;21.90;99.90;;;;;;5046522;28;20701;-70
2021/07/14 04:10:13;;;;;;;18.13;16.53;;;21.90;99.90;;;;;;5059625;28;20629;-70
2021/07/14 04:12:49;;;;;;;17.67;16.17;;;21.90;99.90;;;;;;5028320;28;21248;-70
2021/07/14 04:15:17;;;;;;;18.23;16.33;;;21.90;99.90;;;;;;5029846;28;20672;-70
2021/07/14 04:17:45;;;;;;;18.07;16.57;;;21.90;99.90;;;;;;5056563;28;20986;-70
2021/07/14 04:20:18;;;;;;;16.80;15.40;;;21.90;99.90;;;;;;5031650;28;21057;-70
2021/07/14 04:22:46;;;;;;;17.30;15.73;;;21.90;99.90;;;;;;5050318;28;20612;-70
2021/07/14 04:25:14;;;;;;;17.23;15.83;;;21.90;99.90;;;;;;5041342;28;20691;-70
2021/07/14 04:27:41;;;;;;;16.80;15.50;;;21.90;99.90;;;;;;5048875;28;20599;-70
2021/07/14 04:30:07;;;;;;;15.73;14.43;;;21.90;99.90;;;;;;5050148;28;20662;-70
2021/07/14 04:32:41;;;;;;;18.90;17.00;;;21.90;99.90;;;;;;5053391;28;21028;-70
2021/07/14 04:35:09;;;;;;;16.93;15.53;;;21.90;99.90;;;;;;5048180;28;20625;-70
2021/07/14 04:37:40;;;;;;;18.13;16.50;;;21.90;99.90;;;;;;5051903;28;20602;-70
2021/07/14 04:40:07;;;;;;;17.50;16.00;;;21.90;99.90;;;;;;5034511;28;20661;-70
2021/07/14 04:42:35;;;;;;;16.57;15.23;;;21.90;99.90;;;;;;5037254;28;20702;-70
2021/07/14 04:45:03;;;;;;;17.53;16.13;;;21.90;99.90;;;;;;5057401;28;20601;-70
2021/07/14 04:47:31;;;;;;;17.40;16.07;;;21.90;99.90;;;;;;5034206;28;20574;-71
2021/07/14 04:49:56;;;;;;;18.40;16.80;;;21.90;99.90;;;;;;5051377;28;20606;-69
2021/07/14 04:52:22;;;;;;;18.17;16.50;;;21.90;99.90;;;;;;5046825;28;20593;-70
2021/07/14 04:54:58;;;;;;;17.03;15.57;;;21.90;99.90;;;;;;5052112;28;20246;-69
2021/07/14 04:57:25;;;;;;;18.57;16.90;;;21.90;99.90;;;;;;5053580;28;20253;-70
2021/07/14 04:59:56;;;;;;;17.17;15.47;;;21.90;99.90;;;;;;5067430;28;20764;-70
2021/07/14 05:02:31;;;;;;;19.63;17.70;;;21.90;99.90;;;;;;5041826;28;20963;-70
2021/07/14 05:04:56;;;;;;;19.27;17.50;;;21.90;99.90;;;;;;5044726;28;20567;-69
2021/07/14 05:07:24;;;;;;;18.20;16.67;;;21.90;99.90;;;;;;5038046;28;20638;-69
2021/07/14 05:09:50;;;;;;;18.50;16.90;;;21.90;99.90;;;;;;5042277;28;20564;-69
2021/07/14 05:12:25;;;;;;;19.03;17.50;;;21.90;99.90;;;;;;5048762;28;20980;-69
2021/07/14 05:14:51;;;;;;;20.00;18.13;;;22.00;99.90;;;;;;5064500;28;20246;-69
2021/07/14 05:17:17;;;;;;;18.67;17.20;;;21.90;99.90;;;;;;5032929;28;20643;-69
2021/07/14 05:19:42;;;;;;;18.37;16.77;;;22.00;99.90;;;;;;5049560;28;20688;-69
2021/07/14 05:22:09;;;;;;;19.30;17.57;;;22.00;99.90;;;;;;5051909;28;20557;-72
2021/07/14 05:24:37;;;;;;;19.93;18.30;;;22.00;99.90;;;;;;5058794;28;20206;-69
2021/07/14 05:27:03;;;;;;;19.40;17.67;;;22.00;99.90;;;;;;5058338;28;20612;-69
2021/07/14 05:29:32;;;;;;;19.03;17.43;;;22.00;99.90;;;;;;5030404;28;21195;-69
2021/07/14 05:32:00;;;;;;;20.00;18.30;;;22.00;99.90;;;;;;5028044;28;20606;-69
2021/07/14 05:34:30;;;;;;;20.03;18.40;;;22.00;99.90;;;;;;5033021;28;20602;-70
2021/07/14 05:36:59;;;;;;;20.87;18.70;;;22.10;99.90;;;;;;5050828;28;20555;-69
2021/07/14 05:39:25;;;;;;;20.60;18.60;;;22.10;99.90;;;;;;5050034;28;20848;-71
2021/07/14 05:41:51;;;;;;;19.90;18.10;;;22.10;99.90;;;;;;5051946;28;20682;-69
2021/07/14 05:44:19;;;;;;;19.10;17.40;;;22.10;99.90;;;;;;5050123;28;20914;-68
2021/07/14 05:46:45;;;;;;;20.90;18.90;;;22.10;99.90;;;;;;5050221;28;20553;-69
2021/07/14 05:49:14;;;;;;;20.23;18.37;;;22.20;99.90;;;;;;4999597;28;20639;-69
2021/07/14 05:51:45;;;;;;;21.37;19.60;;;22.20;99.90;;;;;;5055149;28;20530;-69
2021/07/14 05:54:13;;;;;;;21.50;19.40;;;22.20;99.90;;;;;;5032538;28;20602;-69
2021/07/14 05:56:41;;;;;;;20.17;18.40;;;22.20;99.90;;;;;;5050834;28;20578;-69
2021/07/14 05:59:14;;;;;;;22.60;20.70;;;22.20;99.90;;;;;;5049090;28;20670;-69
2021/07/14 06:01:39;;;;;;;19.90;18.20;;;22.20;99.90;;;;;;5050430;28;20667;-69
2021/07/14 06:04:05;;;;;;;22.60;20.70;;;22.20;99.90;;;;;;5037684;28;20778;-69
2021/07/14 06:06:32;;;;;;;22.03;20.13;;;22.20;99.90;;;;;;5036231;28;20195;-69
2021/07/14 06:08:58;;;;;;;22.90;20.80;;;22.20;99.90;;;;;;5048372;28;20716;-69
2021/07/14 06:11:24;;;;;;;23.17;21.07;;;22.30;99.90;;;;;;5045621;28;20668;-69
2021/07/14 06:13:50;;;;;;;24.37;22.07;;;22.30;99.90;;;;;;5049993;28;20599;-69
2021/07/14 06:16:15;;;;;;;21.77;19.87;;;22.30;99.90;;;;;;5040743;28;21207;-69
2021/07/14 06:18:41;;;;;;;21.83;19.97;;;22.30;99.90;;;;;;5050405;28;20662;-69
2021/07/14 06:21:07;;;;;;;23.37;21.27;;;22.30;99.90;;;;;;5021817;28;20181;-69
2021/07/14 06:23:33;;;;;;;23.80;21.60;;;22.30;99.90;;;;;;5045747;28;20290;-71
2021/07/14 06:25:59;;;;;;;22.00;20.17;;;22.20;99.90;;;;;;5043047;28;20181;-69
2021/07/14 06:28:25;;;;;;;24.73;22.53;;;22.30;99.90;;;;;;5047065;28;20642;-69
2021/07/14 06:30:51;;;;;;;24.27;21.97;;;22.30;99.90;;;;;;5032390;28;20192;-71
2021/07/14 06:33:16;;;;;;;23.90;21.70;;;22.30;99.90;;;;;;5049537;28;20255;-72
2021/07/14 06:35:43;;;;;;;22.70;20.50;;;22.30;99.90;;;;;;5048233;28;21547;-69
2021/07/14 06:38:09;;;;;;;24.20;21.97;;;22.30;99.90;;;;;;5022501;28;20655;-69
2021/07/14 06:40:37;;;;;;;22.83;20.80;;;22.20;99.90;;;;;;5049364;28;20610;-71
2021/07/14 06:43:06;;;;;;;23.30;21.17;;;22.20;99.90;;;;;;5049703;28;20587;-70
2021/07/14 06:45:32;;;;;;;25.27;22.83;;;22.20;99.90;;;;;;5024652;28;20638;-71
2021/07/14 06:47:57;;;;;;;25.20;22.80;;;22.20;99.90;;;;;;5046543;28;20599;-69
2021/07/14 06:50:24;;;;;;;24.87;22.67;;;22.20;99.90;;;;;;5026495;28;20663;-69
2021/07/14 06:52:51;;;;;;;27.47;24.97;;;22.20;99.90;;;;;;5048652;28;20176;-72
2021/07/14 06:55:19;;;;;;;26.30;23.90;;;22.20;99.90;;;;;;5049599;28;20590;-72
2021/07/14 06:57:45;;;;;;;27.23;24.67;;;22.10;99.90;;;;;;5049292;28;20609;-69
2021/07/14 07:00:14;;;;;;;27.13;24.47;;;22.10;99.90;;;;;;5029891;28;20682;-69
2021/07/14 07:02:40;;;;;;;27.90;25.50;;;22.10;99.90;;;;;;5047169;28;20188;-71
2021/07/14 07:05:07;;;;;;;27.20;24.90;;;22.10;99.90;;;;;;5031059;28;20605;-70
2021/07/14 07:07:33;;;;;;;26.63;24.13;;;22.10;99.90;;;;;;5030775;28;20599;-69
2021/07/14 07:09:59;;;;;;;26.73;24.30;;;22.10;99.90;;;;;;5040876;28;20708;-69
2021/07/14 07:12:24;;;;;;;28.60;26.00;;;22.10;99.90;;;;;;5049144;28;20187;-69
2021/07/14 07:14:50;;;;;;;28.40;25.53;;;22.10;99.90;;;;;;5049173;28;20643;-69
2021/07/14 07:17:18;;;;;;;31.33;28.53;;;22.10;99.90;;;;;;5052455;28;20206;-69
2021/07/14 07:19:44;;;;;;;29.13;26.23;;;22.10;99.90;;;;;;5048249;28;20223;-69
2021/07/14 07:22:09;;;;;;;27.57;25.13;;;22.10;99.90;;;;;;5030846;28;20602;-69
2021/07/14 07:24:35;;;;;;;27.70;25.20;;;22.20;99.90;;;;;;5047866;28;20602;-71
2021/07/14 07:27:01;;;;;;;27.87;25.13;;;22.20;99.90;;;;;;5047340;28;20722;-69
2021/07/14 07:29:26;;;;;;;28.03;25.57;;;22.30;99.90;;;;;;5049018;28;20568;-69
2021/07/14 07:31:55;;;;;;;28.67;25.97;;;22.40;99.90;;;;;;5048735;28;20328;-69
2021/07/14 07:34:22;;;;;;;28.40;25.80;;;22.50;99.90;;;;;;5030375;28;20184;-69
2021/07/14 07:36:48;;;;;;;27.33;24.93;;;22.50;99.90;;;;;;5048936;28;20718;-70
2021/07/14 07:39:14;;;;;;;28.30;25.70;;;22.70;99.90;;;;;;5047808;28;21144;-69
2021/07/14 07:41:41;;;;;;;25.30;23.17;;;22.50;99.90;;;;;;5030559;28;21183;-69
2021/07/14 07:44:08;;;;;;;27.87;25.37;;;22.60;99.90;;;;;;5033702;28;20607;-69
2021/07/14 07:46:35;;;;;;;26.73;24.27;;;22.60;99.90;;;;;;5048539;28;20911;-69
2021/07/14 07:49:03;;;;;;;26.70;24.40;;;22.60;99.90;;;;;;5048264;28;21190;-70
2021/07/14 07:51:29;;;;;;;26.30;23.90;;;22.70;99.90;;;;;;5049838;28;21231;-69
2021/07/14 07:53:56;;;;;;;27.00;24.50;;;22.60;99.90;;;;;;5053024;28;20598;-68
2021/07/14 07:56:22;;;;;;;26.67;24.40;;;22.60;99.90;;;;;;5051857;28;20292;-68
2021/07/14 07:58:47;;;;;;;27.83;25.43;;;22.60;99.90;;;;;;5052395;28;20677;-69
2021/07/14 08:01:13;;;;;;;26.33;24.03;;;22.70;99.90;;;;;;5057420;28;20192;-69
2021/07/14 08:03:39;;;;;;;26.60;24.30;;;22.70;99.90;;;;;;5051145;28;20629;-69
2021/07/14 08:06:04;;;;;;;26.00;23.60;;;22.80;99.90;;;;;;5051860;28;20203;-68
2021/07/14 08:08:30;;;;;;;25.17;23.10;;;22.90;99.90;;;;;;5051635;28;20216;-69
2021/07/14 08:10:56;;;;;;;24.60;22.40;;;23.00;99.90;;;;;;5050170;28;20266;-69
2021/07/14 08:13:23;;;;;;;25.43;23.03;;;23.00;99.90;;;;;;5052181;28;20191;-69
2021/07/14 08:15:49;;;;;;;25.43;23.23;;;23.20;99.90;;;;;;5034013;28;20180;-69
2021/07/14 08:18:15;;;;;;;25.47;22.97;;;23.20;99.90;;;;;;5050354;28;20699;-69
2021/07/14 08:20:41;;;;;;;25.93;23.63;;;23.20;99.90;;;;;;5052494;28;20185;-69
2021/07/14 08:23:11;;;;;;;23.83;21.90;;;23.40;99.90;;;;;;5052001;28;20689;-69
2021/07/14 08:25:36;;;;;;;24.57;22.50;;;23.30;99.90;;;;;;5052755;28;20594;-69
2021/07/14 08:28:02;;;;;;;24.20;21.83;;;23.40;99.90;;;;;;5051963;28;21114;-69
2021/07/14 08:30:28;;;;;;;23.03;21.03;;;23.50;99.90;;;;;;5052085;28;20204;-69
2021/07/14 08:32:54;;;;;;;24.90;22.70;;;23.50;99.90;;;;;;5051561;28;20220;-69
2021/07/14 08:35:20;;;;;;;24.10;22.10;;;23.50;99.90;;;;;;5051783;28;20575;-69
2021/07/14 08:37:46;;;;;;;23.67;21.80;;;23.60;99.90;;;;;;5032512;28;20599;-69
2021/07/14 08:40:13;;;;;;;23.50;21.60;;;23.70;99.90;;;;;;5050962;28;20661;-69
2021/07/14 08:42:42;;;;;;;25.93;23.90;;;23.70;99.90;;;;;;5049016;28;20621;-69
2021/07/14 08:45:11;;;;;;;24.40;22.37;;;23.70;99.90;;;;;;5050731;28;20694;-72
2021/07/14 08:47:39;;;;;;;24.70;22.60;;;23.80;99.90;;;;;;5043741;28;20681;-69
2021/07/14 08:50:07;;;;;;;24.40;21.90;;;23.90;99.90;;;;;;5051016;28;21144;-69
2021/07/14 08:52:33;;;;;;;21.83;20.13;;;24.00;99.90;;;;;;5048594;28;20670;-69
2021/07/14 08:55:01;;;;;;;22.70;20.67;;;24.20;99.90;;;;;;5051436;28;20686;-69
2021/07/14 08:57:26;;;;;;;22.47;20.53;;;24.40;99.90;;;;;;5050753;28;20188;-69
2021/07/14 08:59:52;;;;;;;21.50;19.83;;;24.50;99.90;;;;;;5053281;28;20672;-69
2021/07/14 09:02:17;;;;;;;23.83;21.93;;;24.50;99.90;;;;;;5049445;28;20202;-69
2021/07/14 09:04:43;;;;;;;21.20;19.50;;;24.60;99.90;;;;;;5051485;28;20710;-69
2021/07/14 09:07:10;;;;;;;20.10;18.50;;;24.80;99.90;;;;;;5032944;28;20180;-69
2021/07/14 09:09:37;;;;;;;20.57;18.97;;;24.90;99.90;;;;;;5031939;28;20541;-69
2021/07/14 09:12:08;;;;;;;19.60;18.20;;;25.00;99.90;;;;;;5055983;28;20618;-68
2021/07/14 09:14:36;;;;;;;19.00;17.50;;;25.10;99.90;;;;;;5031138;28;20672;-67
2021/07/14 09:17:27;;;;;;;18.67;17.17;;;25.20;99.90;;;;;;5057265;28;20593;-69
2021/07/14 09:20:01;;;;;;;18.37;17.07;;;25.30;99.90;;;;;;5047656;28;21225;-69
2021/07/14 09:22:31;;;;;;;18.23;16.83;;;25.40;99.90;;;;;;5033163;28;20660;-69
2021/07/14 09:24:57;;;;;;;18.83;17.33;;;25.50;99.90;;;;;;5031433;28;20681;-69
2021/07/14 09:27:28;;;;;;;18.60;17.03;;;25.60;99.90;;;;;;5048739;28;20765;-69
2021/07/14 09:30:08;;;;;;;16.87;15.60;;;25.70;99.90;;;;;;5032864;28;20290;-71
2021/07/14 09:32:54;;;;;;;17.80;16.50;;;25.80;99.90;;;;;;5050166;28;20648;-69
2021/07/14 09:35:30;;;;;;;17.90;16.50;;;25.90;99.90;;;;;;5050288;28;21147;-69
2021/07/14 09:38:09;;;;;;;16.00;14.90;;;26.00;99.90;;;;;;5050254;28;20600;-69
2021/07/14 09:40:35;;;;;;;17.43;15.93;;;26.00;99.90;;;;;;5032910;28;20617;-69
2021/07/14 09:43:06;;;;;;;16.87;15.57;;;26.10;99.90;;;;;;5050359;28;20603;-69
2021/07/14 09:45:35;;;;;;;16.03;14.83;;;26.20;99.90;;;;;;5053827;28;20583;-69
2021/07/14 09:48:01;;;;;;;17.50;16.10;;;26.20;99.90;;;;;;5050718;28;20828;-69
2021/07/14 09:50:34;;;;;;;17.13;15.93;;;26.20;99.90;;;;;;5050521;28;21162;-69
2021/07/14 09:53:02;;;;;;;15.20;14.10;;;26.30;99.90;;;;;;5031470;28;20726;-69
2021/07/14 09:55:29;;;;;;;16.73;15.40;;;26.40;99.90;;;;;;5050606;28;21212;-69
2021/07/14 09:58:21;;;;;;;16.63;15.43;;;26.50;99.90;;;;;;5049869;28;20753;-69
2021/07/14 10:00:49;;;;;;;16.53;15.23;;;26.60;99.90;;;;;;5058764;23;20741;-68
2021/07/14 10:03:20;;;;;;;17.53;15.70;;;26.80;99.90;;;;;;5060434;28;20590;-69
2021/07/14 10:05:47;;;;;;;16.83;15.60;;;26.90;99.90;;;;;;5064551;28;20581;-69
2021/07/14 10:08:21;;;;;;;15.73;14.53;;;26.90;99.90;;;;;;5066651;28;20614;-69
2021/07/14 10:10:50;;;;;;;16.43;15.23;;;26.90;99.90;;;;;;5044673;28;20645;-69
2021/07/14 10:13:21;;;;;;;15.30;14.20;;;27.00;99.90;;;;;;5050943;28;20606;-69
2021/07/14 10:15:46;;;;;;;16.73;15.33;;;27.10;99.90;;;;;;5051490;28;21018;-69
2021/07/14 10:18:14;;;;;;;16.17;14.97;;;27.10;99.90;;;;;;5040371;28;20649;-70
2021/07/14 10:20:44;;;;;;;16.03;14.93;;;27.10;99.90;;;;;;5051434;28;20204;-69
2021/07/14 10:23:15;;;;;;;16.50;15.27;;;27.10;99.90;;;;;;5051666;28;20601;-68
2021/07/14 10:25:43;;;;;;;15.90;14.70;;;27.10;99.90;;;;;;5050729;28;20625;-70
2021/07/14 10:28:12;;;;;;;15.93;14.83;;;27.20;99.90;;;;;;5048041;28;20690;-68
2021/07/14 10:30:40;;;;;;;16.67;15.47;;;27.30;99.90;;;;;;5051077;28;21026;-68
2021/07/14 10:33:11;;;;;;;16.80;15.70;;;27.40;99.90;;;;;;5050981;28;20606;-68
2021/07/14 10:35:49;;;;;;;16.83;15.53;;;27.40;99.90;;;;;;5044707;28;20626;-69
2021/07/14 10:38:26;;;;;;;16.50;15.40;;;27.40;99.90;;;;;;5049905;28;21088;-68
2021/07/14 10:40:54;;;;;;;16.43;15.23;;;27.50;99.90;;;;;;5045285;28;20626;-68
2021/07/14 10:43:23;;;;;;;16.10;14.90;;;27.60;99.90;;;;;;5049545;28;20599;-69
2021/07/14 10:45:50;;;;;;;16.70;15.40;;;27.70;99.90;;;;;;5027453;28;20610;-69
2021/07/14 10:48:18;;;;;;;16.70;15.30;;;27.70;99.90;;;;;;5048835;28;20808;-69
2021/07/14 10:50:47;;;;;;;17.07;15.97;;;27.80;99.90;;;;;;5048473;28;20990;-68
2021/07/14 10:53:13;;;;;;;17.10;15.80;;;27.90;99.90;;;;;;5029315;28;21403;-68
2021/07/14 10:55:41;;;;;;;17.53;16.30;;;27.90;99.90;;;;;;5045029;28;20630;-68
2021/07/14 10:58:08;;;;;;;16.60;15.50;;;28.00;99.90;;;;;;5048763;28;20606;-68
2021/07/14 11:00:42;;;;;;;17.43;16.03;;;28.00;99.90;;;;;;5028720;28;20712;-69
2021/07/14 11:03:27;;;;;;;16.80;15.70;;;28.10;99.90;;;;;;5037118;28;20664;-69
2021/07/14 11:05:53;;;;;;;16.97;15.77;;;28.20;99.90;;;;;;5048234;28;20625;-69
2021/07/14 11:08:42;;;;;;;16.47;15.27;;;28.30;99.90;;;;;;5042990;28;20972;-69
2021/07/14 11:11:08;;;;;;;17.00;15.80;;;28.50;99.90;;;;;;5047556;28;20200;-69
2021/07/14 11:13:35;;;;;;;16.80;15.60;;;28.60;99.90;;;;;;5048767;28;21184;-68
2021/07/14 11:16:31;;;;;;;15.70;14.60;;;28.70;99.90;;;;;;5040845;28;20615;-68
2021/07/14 11:19:10;;;;;;;15.87;14.67;;;28.90;99.90;;;;;;5037710;28;21204;-68
2021/07/14 11:21:59;;;;;;;16.10;14.90;;;28.90;99.90;;;;;;5049401;28;20633;-68
2021/07/14 11:24:37;;;;;;;16.40;15.20;;;29.00;99.90;;;;;;5040413;28;21207;-69
2021/07/14 11:27:21;;;;;;;16.67;15.33;;;29.20;99.90;;;;;;5053079;28;20598;-68
2021/07/14 11:29:48;;;;;;;16.17;15.07;;;29.20;99.90;;;;;;5034460;28;20673;-68
2021/07/14 11:35:07;;;;;;;14.97;13.87;;;29.50;99.90;;;;;;5045230;28;20689;-69
2021/07/14 11:37:35;;;;;;;15.53;14.53;;;29.50;99.90;;;;;;5052512;28;20590;-69
2021/07/14 11:40:23;;;;;;;16.17;14.87;;;29.70;99.90;;;;;;5052695;28;21075;-68
2021/07/14 11:43:02;;;;;;;14.50;13.60;;;29.80;99.90;;;;;;5046730;28;20614;-68
2021/07/14 11:45:33;;;;;;;16.70;15.47;;;29.80;99.90;;;;;;5053011;28;20606;-69
2021/07/14 11:48:05;;;;;;;14.63;13.63;;;29.90;99.90;;;;;;5052706;28;20598;-68
2021/07/14 11:50:46;;;;;;;15.87;14.67;;;30.00;99.90;;;;;;5042806;28;20960;-68
2021/07/14 11:53:36;;;;;;;14.30;13.30;;;30.10;99.90;;;;;;5053229;28;20609;-69
2021/07/14 11:56:09;;;;;;;15.07;13.87;;;30.10;99.90;;;;;;5034380;28;20603;-69
2021/07/14 11:59:08;;;;;;;16.27;15.03;;;30.10;99.90;;;;;;5044742;28;20705;-69
2021/07/14 12:01:34;;;;;;;14.00;13.10;;;30.20;99.90;;;;;;5051009;28;20749;-69
2021/07/14 12:04:00;;;;;;;14.23;13.13;;;30.20;99.90;;;;;;5038161;28;20717;-68
2021/07/14 12:06:37;;;;;;;14.23;13.13;;;30.10;99.90;;;;;;5046115;28;20224;-68
2021/07/14 12:09:12;;;;;;;15.13;13.83;;;30.10;99.90;;;;;;5048915;28;20263;-69
2021/07/14 12:11:57;;;;;;;13.70;12.70;;;30.00;99.90;;;;;;5031651;28;20740;-69
2021/07/14 12:14:28;;;;;;;14.40;13.30;;;30.00;99.90;;;;;;5047603;28;20627;-69
2021/07/14 12:16:58;;;;;;;13.10;12.20;;;30.10;99.90;;;;;;5049540;28;20586;-69
2021/07/14 12:19:47;;;;;;;13.70;12.70;;;30.20;99.90;;;;;;5051196;28;20642;-69
2021/07/14 12:22:15;;;;;;;13.37;12.40;;;30.30;99.90;;;;;;5047854;28;20683;-70
2021/07/14 12:24:56;;;;;;;13.73;12.63;;;30.40;99.90;;;;;;5047009;28;21252;-68
2021/07/14 12:27:34;;;;;;;13.00;11.83;;;30.50;99.90;;;;;;5052144;28;20581;-68
2021/07/14 12:30:08;;;;;;;13.90;12.90;;;30.70;99.90;;;;;;5051815;28;20780;-68
2021/07/14 12:32:54;;;;;;;13.30;12.30;;;30.60;99.90;;;;;;5033852;28;20610;-68
2021/07/14 12:35:30;;;;;;;13.93;13.03;;;30.70;99.90;;;;;;5049528;28;20675;-68
2021/07/14 12:38:06;;;;;;;14.27;12.80;;;30.70;99.90;;;;;;5050416;28;20589;-69
2021/07/14 12:40:36;;;;;;;13.90;12.80;;;30.70;99.90;;;;;;5047095;28;20630;-68
2021/07/14 12:43:17;;;;;;;13.43;12.53;;;30.70;99.90;;;;;;5051251;28;20586;-68
2021/07/14 12:45:45;;;;;;;14.00;12.90;;;30.70;99.90;;;;;;5030977;28;20973;-68
2021/07/14 12:48:17;;;;;;;13.13;12.13;;;30.60;99.90;;;;;;5052048;28;20590;-69
2021/07/14 12:50:44;;;;;;;12.50;11.60;;;30.60;99.90;;;;;;5048754;28;20816;-68
2021/07/14 12:53:10;;;;;;;12.70;11.60;;;30.50;99.90;;;;;;5033294;28;20601;-69
2021/07/14 12:55:38;;;;;;;13.93;12.63;;;30.40;99.90;;;;;;5051324;28;21128;-68